createdAt,value
2018-03-15T00:02:06.779Z,16.73
2018-03-15T00:04:35.111Z,16.65
2018-03-15T00:07:02.598Z,17.15
2018-03-15T00:09:30.029Z,17.35
2018-03-15T00:11:57.513Z,17.73
2018-03-15T00:14:24.972Z,17.40
2018-03-15T00:16:52.429Z,16.60
2018-03-15T00:19:19.872Z,17.58
2018-03-15T00:21:47.343Z,17.35
2018-03-15T00:24:14.786Z,17.70
2018-03-15T00:26:42.234Z,17.40
2018-03-15T00:29:09.710Z,17.25
2018-03-15T00:31:37.165Z,18.48
2018-03-15T00:34:04.726Z,17.62
2018-03-15T00:36:32.187Z,17.25
2018-03-15T00:38:59.640Z,17.40
2018-03-15T00:41:27.089Z,18.15
2018-03-15T00:43:54.710Z,18.60
2018-03-15T00:46:22.146Z,19.00
2018-03-15T00:48:50.373Z,18.58
2018-03-15T00:51:17.822Z,18.53
2018-03-15T00:53:45.263Z,19.60
2018-03-15T00:56:12.747Z,19.20
2018-03-15T00:58:40.200Z,19.00
2018-03-15T01:01:07.663Z,19.40
2018-03-15T01:03:35.106Z,19.27
2018-03-15T01:06:02.567Z,19.23
2018-03-15T01:08:30.010Z,18.40
2018-03-15T01:10:57.582Z,18.50
2018-03-15T01:13:25.026Z,17.42
2018-03-15T01:15:52.469Z,19.02
2018-03-15T01:18:19.911Z,17.45
2018-03-15T01:20:47.342Z,17.40
2018-03-15T01:23:15.566Z,16.50
2018-03-15T01:25:43.034Z,16.50
2018-03-15T01:28:10.501Z,16.95
2018-03-15T01:30:37.934Z,15.85
2018-03-15T01:33:05.375Z,16.55
2018-03-15T01:35:32.818Z,16.48
2018-03-15T01:38:00.264Z,15.75
2018-03-15T01:40:28.498Z,15.77
2018-03-15T01:42:55.946Z,16.40
2018-03-15T01:45:23.383Z,16.45
2018-03-15T01:47:50.841Z,16.52
2018-03-15T01:50:18.296Z,15.77
2018-03-15T01:52:45.769Z,16.45
2018-03-15T01:55:13.226Z,16.55
2018-03-15T01:57:40.666Z,16.83
2018-03-15T02:00:08.110Z,16.02
2018-03-15T02:02:35.555Z,16.05
2018-03-15T02:05:03.755Z,16.42
2018-03-15T02:07:31.191Z,16.08
2018-03-15T02:09:58.700Z,14.68
2018-03-15T02:12:26.135Z,14.48
2018-03-15T02:14:53.570Z,14.13
2018-03-15T02:17:21.001Z,14.32
2018-03-15T02:19:49.227Z,14.63
2018-03-15T02:22:17.431Z,14.18
2018-03-15T02:24:44.877Z,14.65
2018-03-15T02:27:12.322Z,14.55
2018-03-15T02:29:39.770Z,14.23
2018-03-15T02:32:07.209Z,12.95
2018-03-15T02:34:34.685Z,13.90
2018-03-15T02:37:02.138Z,13.80
2018-03-15T02:39:29.677Z,13.65
2018-03-15T02:41:57.105Z,12.32
2018-03-15T02:44:25.330Z,12.18
2018-03-15T02:46:52.794Z,11.50
2018-03-15T02:49:20.262Z,11.90
2018-03-15T02:51:47.716Z,11.32
2018-03-15T02:54:15.147Z,11.30
2018-03-15T02:56:42.594Z,12.30
2018-03-15T02:59:10.076Z,11.75
2018-03-15T03:01:37.533Z,11.32
2018-03-15T03:04:04.972Z,12.02
2018-03-15T03:06:32.451Z,13.05
2018-03-15T03:08:59.910Z,11.68
2018-03-15T03:11:27.446Z,10.98
2018-03-15T03:13:54.886Z,11.00
2018-03-15T03:16:22.333Z,10.18
2018-03-15T03:18:49.763Z,10.00
2018-03-15T03:21:17.972Z,10.75
2018-03-15T03:23:45.418Z,10.60
2018-03-15T03:26:12.863Z,10.07
2018-03-15T03:28:40.366Z,10.00
2018-03-15T03:31:07.798Z,9.80
2018-03-15T03:33:35.262Z,9.68
2018-03-15T03:36:02.715Z,10.68
2018-03-15T03:38:30.186Z,9.07
2018-03-15T03:40:57.641Z,9.23
2018-03-15T03:43:25.078Z,10.10
2018-03-15T03:45:52.507Z,9.52
2018-03-15T03:48:20.736Z,8.73
2018-03-15T03:50:48.173Z,8.48
2018-03-15T03:53:15.607Z,8.80
2018-03-15T03:55:43.110Z,8.68
2018-03-15T03:58:11.052Z,8.10
2018-03-15T04:00:38.486Z,8.10
2018-03-15T04:03:05.951Z,8.52
2018-03-15T04:05:33.388Z,8.33
2018-03-15T04:08:01.587Z,8.73
2018-03-15T04:10:29.016Z,8.20
2018-03-15T04:12:57.233Z,8.10
2018-03-15T04:15:24.662Z,8.50
2018-03-15T04:17:52.158Z,9.90
2018-03-15T04:20:19.601Z,10.05
2018-03-15T04:22:47.046Z,10.18
2018-03-15T04:25:14.488Z,9.20
2018-03-15T04:27:41.970Z,10.45
2018-03-15T04:30:09.516Z,10.00
2018-03-15T04:32:36.987Z,9.50
2018-03-15T04:35:04.558Z,10.32
2018-03-15T04:37:32.000Z,8.82
2018-03-15T04:39:59.430Z,9.57
2018-03-15T04:42:26.880Z,10.40
2018-03-15T04:44:54.385Z,10.20
2018-03-15T04:47:21.833Z,11.10
2018-03-15T04:49:49.398Z,10.48
2018-03-15T04:52:16.834Z,10.55
2018-03-15T04:54:44.274Z,11.07
2018-03-15T04:57:11.706Z,11.40
2018-03-15T04:59:39.921Z,11.50
2018-03-15T05:02:07.360Z,11.35
2018-03-15T05:04:34.802Z,11.60
2018-03-15T05:07:02.306Z,11.63
2018-03-15T05:09:29.754Z,12.23
2018-03-15T05:11:57.195Z,12.13
2018-03-15T05:14:24.651Z,13.07
2018-03-15T05:16:52.138Z,12.77
2018-03-15T05:19:19.582Z,12.60
2018-03-15T05:21:47.025Z,13.52
2018-03-15T05:24:14.463Z,15.20
2018-03-15T05:26:41.905Z,16.55
2018-03-15T05:29:09.349Z,14.52
2018-03-15T05:31:37.556Z,14.25
2018-03-15T05:34:04.998Z,15.65
2018-03-15T05:36:32.430Z,13.20
2018-03-15T05:38:59.869Z,15.00
2018-03-15T05:41:27.330Z,14.32
2018-03-15T05:43:54.808Z,15.13
2018-03-15T05:46:22.254Z,14.65
2018-03-15T05:48:49.670Z,13.70
2018-03-15T05:51:17.127Z,15.20
2018-03-15T05:53:44.550Z,13.85
2018-03-15T05:56:11.994Z,14.75
2018-03-15T05:58:39.426Z,15.10
2018-03-15T06:01:06.862Z,13.98
2018-03-15T06:03:34.315Z,14.68
2018-03-15T06:06:01.758Z,14.23
2018-03-15T06:08:29.231Z,14.48
2018-03-15T06:10:56.671Z,13.82
2018-03-15T06:13:24.101Z,14.02
2018-03-15T06:15:51.542Z,14.13
2018-03-15T06:18:19.732Z,14.20
2018-03-15T06:20:47.167Z,13.62
2018-03-15T06:23:15.391Z,14.77
2018-03-15T06:25:42.868Z,14.00
2018-03-15T06:28:10.302Z,12.90
2018-03-15T06:30:37.753Z,12.23
2018-03-15T06:33:05.209Z,11.43
2018-03-15T06:35:32.647Z,11.52
2018-03-15T06:38:00.095Z,11.23
2018-03-15T06:40:27.542Z,10.38
2018-03-15T06:42:54.982Z,10.40
2018-03-15T06:45:23.206Z,10.77
2018-03-15T06:47:50.648Z,9.48
2018-03-15T06:50:18.090Z,9.73
2018-03-15T06:52:45.556Z,10.05
2018-03-15T06:55:13.002Z,9.15
2018-03-15T06:57:40.518Z,10.45
2018-03-15T07:00:08.051Z,8.95
2018-03-15T07:02:35.485Z,9.00
2018-03-15T07:05:02.914Z,9.80
2018-03-15T07:07:31.250Z,8.40
2018-03-15T07:09:59.504Z,8.50
2018-03-15T07:12:26.959Z,8.93
2018-03-15T07:14:54.396Z,9.10
2018-03-15T07:17:21.859Z,9.02
2018-03-15T07:19:49.298Z,8.57
2018-03-15T07:22:17.506Z,8.75
2018-03-15T07:24:44.922Z,8.90
2018-03-15T07:27:13.129Z,9.30
2018-03-15T07:29:40.564Z,9.15
2018-03-15T07:32:08.043Z,8.75
2018-03-15T07:34:35.497Z,9.27
2018-03-15T07:37:03.004Z,8.50
2018-03-15T07:39:30.455Z,7.12
2018-03-15T07:41:58.099Z,7.93
2018-03-15T07:44:25.566Z,7.30
2018-03-15T07:46:53.000Z,8.35
2018-03-15T07:49:20.433Z,8.10
2018-03-15T07:51:47.875Z,8.02
2018-03-15T07:54:15.323Z,7.85
2018-03-15T07:56:43.539Z,8.77
2018-03-15T07:59:11.087Z,9.43
2018-03-15T08:01:38.577Z,9.07
2018-03-15T08:04:06.103Z,9.35
2018-03-15T08:06:33.571Z,9.63
2018-03-15T08:09:01.002Z,9.70
2018-03-15T08:11:28.434Z,9.40
2018-03-15T08:13:55.869Z,10.75
2018-03-15T08:16:23.290Z,9.95
2018-03-15T08:18:50.798Z,9.65
2018-03-15T08:21:18.327Z,10.00
2018-03-15T08:23:45.787Z,9.10
2018-03-15T08:26:13.227Z,9.57
2018-03-15T08:28:40.693Z,10.45
2018-03-15T08:31:08.154Z,9.45
2018-03-15T08:33:35.595Z,9.95
2018-03-15T08:36:03.035Z,9.10
2018-03-15T08:38:30.493Z,8.50
2018-03-15T08:40:57.906Z,8.48
2018-03-15T08:43:26.129Z,9.23
2018-03-15T08:45:53.583Z,9.35
2018-03-15T08:48:21.112Z,9.07
2018-03-15T08:50:49.346Z,8.73
2018-03-15T08:53:16.822Z,8.98
2018-03-15T08:55:44.430Z,9.05
2018-03-15T08:58:11.885Z,9.38
2018-03-15T09:00:39.476Z,8.43
2018-03-15T09:03:06.912Z,8.00
2018-03-15T09:05:34.461Z,8.60
2018-03-15T09:08:01.882Z,8.77
2018-03-15T09:10:30.078Z,9.02
2018-03-15T09:12:57.515Z,9.30
2018-03-15T09:15:25.019Z,9.10
2018-03-15T09:17:52.460Z,9.45
2018-03-15T09:20:19.935Z,9.40
2018-03-15T09:22:47.396Z,11.48
2018-03-15T09:25:14.851Z,10.48
2018-03-15T09:27:42.388Z,10.27
2018-03-15T09:30:09.896Z,10.25
2018-03-15T09:32:38.087Z,10.13
2018-03-15T09:35:06.395Z,10.60
2018-03-15T09:37:33.848Z,12.02
2018-03-15T09:40:01.409Z,12.05
2018-03-15T09:42:28.863Z,11.60
2018-03-15T09:44:56.352Z,10.98
2018-03-15T09:47:23.797Z,11.00
2018-03-15T09:49:51.460Z,11.48
2018-03-15T09:52:18.911Z,10.73
2018-03-15T09:54:46.363Z,11.70
2018-03-15T09:57:13.790Z,11.07
2018-03-15T09:59:41.228Z,11.32
2018-03-15T10:02:09.439Z,12.60
2018-03-15T10:04:36.913Z,11.98
2018-03-15T10:07:04.358Z,11.70
2018-03-15T10:09:31.786Z,12.90
2018-03-15T10:11:59.284Z,13.20
2018-03-15T10:14:26.819Z,13.55
2018-03-15T10:16:54.259Z,13.95
2018-03-15T10:19:21.787Z,13.18
2018-03-15T10:21:49.311Z,13.90
2018-03-15T10:24:16.760Z,13.20
2018-03-15T10:26:44.305Z,14.55
2018-03-15T10:29:11.761Z,14.20
2018-03-15T10:31:39.269Z,14.90
2018-03-15T10:34:06.755Z,14.20
2018-03-15T10:36:34.306Z,15.07
2018-03-15T10:39:02.507Z,16.58
2018-03-15T10:41:29.960Z,15.48
2018-03-15T10:43:57.406Z,15.95
2018-03-15T10:46:24.901Z,16.40
2018-03-15T10:48:52.436Z,16.00
2018-03-15T10:51:19.903Z,16.52
2018-03-15T10:53:47.375Z,16.75
2018-03-15T10:56:14.907Z,17.37
2018-03-15T10:58:42.343Z,16.42
2018-03-15T11:01:09.870Z,16.73
2018-03-15T11:03:43.016Z,16.05
2018-03-15T11:06:10.454Z,18.83
2018-03-15T11:08:37.922Z,17.10
2018-03-15T11:11:05.373Z,17.17
2018-03-15T11:13:32.839Z,17.48
2018-03-15T11:16:00.336Z,17.52
2018-03-15T11:18:27.782Z,16.83
2018-03-15T11:20:55.327Z,18.12
2018-03-15T11:23:22.821Z,18.85
2018-03-15T11:25:50.271Z,16.62
2018-03-15T11:28:17.704Z,16.23
2018-03-15T11:30:45.148Z,16.40
2018-03-15T11:33:12.612Z,16.15
2018-03-15T11:35:40.046Z,16.50
2018-03-15T11:38:07.522Z,16.75
2018-03-15T11:40:34.973Z,17.70
2018-03-15T11:43:02.435Z,16.50
2018-03-15T11:45:29.898Z,15.70
2018-03-15T11:47:57.342Z,16.05
2018-03-15T11:50:24.803Z,16.10
2018-03-15T11:52:52.290Z,16.35
2018-03-15T11:55:19.801Z,18.90
2018-03-15T11:57:47.259Z,19.40
2018-03-15T12:00:14.703Z,20.70
2018-03-15T12:02:42.142Z,20.40
2018-03-15T12:05:11.074Z,21.87
2018-03-15T12:07:38.544Z,20.73
2018-03-15T12:10:06.072Z,20.95
2018-03-15T12:12:33.553Z,20.25
2018-03-15T12:15:01.000Z,21.48
2018-03-15T12:17:28.442Z,21.05
2018-03-15T12:19:55.922Z,21.40
2018-03-15T12:22:23.373Z,21.90
2018-03-15T12:24:50.847Z,21.52
2018-03-15T12:27:18.472Z,20.80
2018-03-15T12:29:45.906Z,20.10
2018-03-15T12:32:13.387Z,19.83
2018-03-15T12:34:40.823Z,20.55
2018-03-15T12:37:08.295Z,21.23
2018-03-15T12:39:35.735Z,20.15
2018-03-15T12:42:03.186Z,20.30
2018-03-15T12:44:30.806Z,19.23
2018-03-15T12:46:58.261Z,20.42
2018-03-15T12:49:25.712Z,20.40
2018-03-15T12:51:53.155Z,19.25
2018-03-15T12:54:20.638Z,20.58
2018-03-15T12:56:48.091Z,19.52
2018-03-15T12:59:15.551Z,19.80
2018-03-15T13:01:43.009Z,20.27
2018-03-15T13:04:10.462Z,18.58
2018-03-15T13:06:37.916Z,19.87
2018-03-15T13:09:05.482Z,18.60
2018-03-15T13:11:32.942Z,19.58
2018-03-15T13:14:00.449Z,19.77
2018-03-15T13:19:02.561Z,20.65
2018-03-15T13:21:30.087Z,19.62
2018-03-15T13:23:57.568Z,19.73
2018-03-15T13:26:25.110Z,19.80
2018-03-15T13:28:52.536Z,20.50
2018-03-15T13:31:19.968Z,20.27
2018-03-15T13:33:47.491Z,20.85
2018-03-15T13:36:14.960Z,19.83
2018-03-15T13:38:42.415Z,21.02
2018-03-15T13:41:09.869Z,19.62
2018-03-15T13:43:37.399Z,21.08
2018-03-15T13:46:04.834Z,19.70
2018-03-15T13:48:32.340Z,21.40
2018-03-15T13:50:59.871Z,21.00
2018-03-15T13:53:27.307Z,19.90
2018-03-15T13:55:54.786Z,20.58
2018-03-15T13:58:22.243Z,20.08
2018-03-15T14:00:49.684Z,21.70
2018-03-15T14:03:17.206Z,20.20
2018-03-15T14:05:44.661Z,20.92
2018-03-15T14:08:12.328Z,26.85
2018-03-15T14:10:39.773Z,22.73
2018-03-15T14:13:07.418Z,20.75
2018-03-15T14:15:34.855Z,20.27
2018-03-15T14:18:02.408Z,21.08
2018-03-15T14:20:29.847Z,20.85
2018-03-15T14:22:57.348Z,19.80
2018-03-15T14:25:24.872Z,20.50
2018-03-15T14:27:52.330Z,20.55
2018-03-15T14:30:19.758Z,21.37
2018-03-15T14:32:47.991Z,19.87
2018-03-15T14:35:15.438Z,19.00
2018-03-15T14:37:42.936Z,19.58
2018-03-15T14:40:12.323Z,19.92
2018-03-15T14:42:39.929Z,20.33
2018-03-15T14:45:07.389Z,19.37
2018-03-15T14:47:34.949Z,20.05
2018-03-15T14:50:02.375Z,19.55
2018-03-15T14:52:30.685Z,18.98
2018-03-15T14:54:58.239Z,20.07
2018-03-15T14:57:25.678Z,19.23
2018-03-15T14:59:53.129Z,19.62
2018-03-15T15:02:20.616Z,18.45
2018-03-15T15:04:48.035Z,18.20
2018-03-15T15:07:16.286Z,18.33
2018-03-15T15:09:43.832Z,17.67
2018-03-15T15:12:11.302Z,18.55
2018-03-15T15:14:38.727Z,18.37
2018-03-15T15:17:06.227Z,18.20
2018-03-15T15:19:34.544Z,21.65
2018-03-15T15:22:02.004Z,17.12
2018-03-15T15:24:29.456Z,17.95
2018-03-15T15:26:56.911Z,17.65
2018-03-15T15:29:24.443Z,17.75
2018-03-15T15:31:52.676Z,16.77
2018-03-15T15:34:20.123Z,17.20
2018-03-15T15:36:47.661Z,16.20
2018-03-15T15:39:15.092Z,16.90
2018-03-15T15:41:43.334Z,17.40
2018-03-15T15:44:10.950Z,16.65
2018-03-15T15:46:38.397Z,15.82
2018-03-15T15:49:05.901Z,16.75
2018-03-15T15:51:33.347Z,16.42
2018-03-15T15:54:00.811Z,16.95
2018-03-15T15:56:29.049Z,15.23
2018-03-15T15:58:56.486Z,16.00
2018-03-15T16:01:23.932Z,15.80
2018-03-15T16:03:51.375Z,16.55
2018-03-15T16:06:18.814Z,15.52
2018-03-15T16:08:46.396Z,15.73
2018-03-15T16:11:14.227Z,16.30
2018-03-15T16:13:41.643Z,18.12
2018-03-15T16:16:09.085Z,15.18
2018-03-15T16:18:36.620Z,15.10
2018-03-15T16:21:04.049Z,15.32
2018-03-15T16:23:31.585Z,15.60
2018-03-15T16:25:59.074Z,15.43
2018-03-15T16:28:26.511Z,16.40
2018-03-15T16:30:54.054Z,14.20
2018-03-15T16:33:21.642Z,15.27
2018-03-15T16:35:49.086Z,15.63
2018-03-15T16:38:16.626Z,15.18
2018-03-15T16:40:44.185Z,14.77
2018-03-15T16:43:11.665Z,14.18
2018-03-15T16:45:39.103Z,14.60
2018-03-15T16:48:06.591Z,13.82
2018-03-15T16:50:34.079Z,14.90
2018-03-15T16:53:02.295Z,14.63
2018-03-15T16:55:29.762Z,14.37
2018-03-15T16:57:57.220Z,14.70
2018-03-15T17:00:24.757Z,14.75
2018-03-15T17:02:52.188Z,17.97
2018-03-15T17:05:20.384Z,14.65
2018-03-15T17:07:47.827Z,15.60
2018-03-15T17:10:15.379Z,14.80
2018-03-15T17:12:42.825Z,14.75
2018-03-15T17:15:11.044Z,14.65
2018-03-15T17:17:38.594Z,14.57
2018-03-15T17:20:06.076Z,14.07
2018-03-15T17:22:33.515Z,14.93
2018-03-15T17:25:00.987Z,14.45
2018-03-15T17:27:28.458Z,15.20
2018-03-15T17:29:55.911Z,14.30
2018-03-15T17:32:23.432Z,13.23
2018-03-15T17:34:50.886Z,14.07
2018-03-15T17:37:18.324Z,13.80
2018-03-15T17:39:45.815Z,13.68
2018-03-15T17:42:13.266Z,13.43
2018-03-15T17:44:40.706Z,13.40
2018-03-15T17:47:08.144Z,14.50
2018-03-15T17:49:35.730Z,12.90
2018-03-15T17:52:03.158Z,13.55
2018-03-15T17:54:31.495Z,13.00
2018-03-15T17:56:59.126Z,13.48
2018-03-15T17:59:26.552Z,14.00
2018-03-15T18:01:54.780Z,13.65
2018-03-15T18:04:22.256Z,13.23
2018-03-15T18:06:49.695Z,13.75
2018-03-15T18:09:17.158Z,13.82
2018-03-15T18:11:44.593Z,13.62
2018-03-15T18:14:12.050Z,13.50
2018-03-15T18:16:39.486Z,12.63
2018-03-15T18:19:06.947Z,13.68
2018-03-15T18:21:34.391Z,12.80
2018-03-15T18:24:01.960Z,12.43
2018-03-15T18:26:29.402Z,12.77
2018-03-15T18:28:56.837Z,12.65
2018-03-15T18:31:25.111Z,13.00
2018-03-15T18:33:52.543Z,12.20
2018-03-15T18:36:20.079Z,12.63
2018-03-15T18:38:47.618Z,11.95
2018-03-15T18:41:15.102Z,12.57
2018-03-15T18:43:42.555Z,12.75
2018-03-15T18:46:09.993Z,12.75
2018-03-15T18:48:37.423Z,13.02
2018-03-15T18:51:04.902Z,13.93
2018-03-15T18:53:32.355Z,13.95
2018-03-15T18:55:59.837Z,12.63
2018-03-15T18:58:27.372Z,15.45
2018-03-15T19:00:54.827Z,12.40
2018-03-15T19:03:22.311Z,12.60
2018-03-15T19:05:49.768Z,13.40
2018-03-15T19:08:17.216Z,13.80
2018-03-15T19:10:44.704Z,13.32
2018-03-15T19:13:12.212Z,13.57
2018-03-15T19:15:39.646Z,13.77
2018-03-15T19:18:07.226Z,13.82
2018-03-15T19:20:34.683Z,13.62
2018-03-15T19:23:02.148Z,13.68
2018-03-15T19:25:29.598Z,13.90
2018-03-15T19:27:57.051Z,13.90
2018-03-15T19:30:24.609Z,13.57
2018-03-15T19:32:52.030Z,13.27
2018-03-15T19:35:20.239Z,13.47
2018-03-15T19:37:47.710Z,12.90
2018-03-15T19:40:15.098Z,12.68
2018-03-15T19:42:42.625Z,12.80
2018-03-15T19:45:10.053Z,11.85
2018-03-15T19:47:37.494Z,13.07
2018-03-15T19:50:04.977Z,12.00
2018-03-15T19:52:32.457Z,12.52
2018-03-15T19:54:59.887Z,11.38
2018-03-15T19:57:27.369Z,12.18
2018-03-15T19:59:54.820Z,10.20
2018-03-15T20:02:22.420Z,11.05
2018-03-15T20:04:49.922Z,11.40
2018-03-15T20:07:17.597Z,11.00
2018-03-15T20:09:44.967Z,10.90
2018-03-15T20:12:12.433Z,10.20
2018-03-15T20:14:39.976Z,10.90
2018-03-15T20:17:07.419Z,10.50
2018-03-15T20:19:34.866Z,10.75
2018-03-15T20:22:02.334Z,10.45
2018-03-15T20:24:32.220Z,10.63
2018-03-15T20:26:59.828Z,10.50
2018-03-15T20:29:27.257Z,10.52
2018-03-15T20:31:55.371Z,10.00
2018-03-15T20:34:22.807Z,9.85
2018-03-15T20:36:50.268Z,10.07
2018-03-15T20:39:23.422Z,10.68
2018-03-15T20:41:50.892Z,10.32
2018-03-15T20:44:18.337Z,10.20
2018-03-15T20:46:51.434Z,9.80
2018-03-15T20:49:18.886Z,10.60
2018-03-15T20:51:46.354Z,10.10
2018-03-15T20:54:13.814Z,10.35
2018-03-15T20:56:41.352Z,9.88
2018-03-15T20:59:08.792Z,8.90
2018-03-15T21:01:36.219Z,10.20
2018-03-15T21:04:04.444Z,10.57
2018-03-15T21:06:31.916Z,10.30
2018-03-15T21:08:59.362Z,10.55
2018-03-15T21:11:26.808Z,10.70
2018-03-15T21:13:54.256Z,10.85
2018-03-15T21:16:21.718Z,10.30
2018-03-15T21:18:49.145Z,9.77
2018-03-15T21:21:17.370Z,11.10
2018-03-15T21:23:44.909Z,10.23
2018-03-15T21:26:12.382Z,10.43
2018-03-15T21:28:39.862Z,10.32
2018-03-15T21:31:07.382Z,10.70
2018-03-15T21:33:34.943Z,9.60
2018-03-15T21:36:02.422Z,10.27
2018-03-15T21:38:29.862Z,10.35
2018-03-15T21:40:57.343Z,10.45
2018-03-15T21:43:24.787Z,10.27
2018-03-15T21:45:52.319Z,9.52
2018-03-15T21:48:19.880Z,10.35
2018-03-15T21:50:47.316Z,10.70
2018-03-15T21:53:14.893Z,10.10
2018-03-15T21:55:42.328Z,10.93
2018-03-15T21:58:09.838Z,10.95
2018-03-15T22:00:37.282Z,10.20
2018-03-15T22:03:04.722Z,11.00
2018-03-15T22:05:32.295Z,11.35
2018-03-15T22:07:59.833Z,10.75
2018-03-15T22:10:27.276Z,12.32
2018-03-15T22:12:54.935Z,11.68
2018-03-15T22:15:22.375Z,11.85
2018-03-15T22:17:50.610Z,12.00
2018-03-15T22:20:18.145Z,12.50
2018-03-15T22:22:45.575Z,12.18
2018-03-15T22:25:13.095Z,11.93
2018-03-15T22:27:40.546Z,12.55
2018-03-15T22:30:07.986Z,13.27
2018-03-15T22:32:35.443Z,12.55
2018-03-15T22:35:02.917Z,12.75
2018-03-15T22:37:30.459Z,12.95
2018-03-15T22:39:57.918Z,13.30
2018-03-15T22:42:25.359Z,13.90
2018-03-15T22:44:52.794Z,13.75
2018-03-15T22:47:20.230Z,13.88
2018-03-15T22:49:48.484Z,13.23
2018-03-15T22:52:15.940Z,13.60
2018-03-15T22:54:44.884Z,13.62
2018-03-15T22:57:12.326Z,13.88
2018-03-15T22:59:39.757Z,12.95
2018-03-15T23:02:07.979Z,13.90
2018-03-15T23:04:35.410Z,14.20
2018-03-15T23:07:02.853Z,13.43
2018-03-15T23:09:31.066Z,14.05
2018-03-15T23:11:58.512Z,14.20
2018-03-15T23:14:26.091Z,13.93
2018-03-15T23:16:53.635Z,14.55
2018-03-15T23:19:21.055Z,14.63
2018-03-15T23:21:48.490Z,14.10
2018-03-15T23:24:16.019Z,15.32
2018-03-15T23:26:43.460Z,14.80
2018-03-15T23:29:10.910Z,15.50
2018-03-15T23:31:38.392Z,15.18
2018-03-15T23:34:05.862Z,15.63
2018-03-15T23:36:33.318Z,15.50
2018-03-15T23:39:00.768Z,15.73
2018-03-15T23:41:28.399Z,15.23
2018-03-15T23:43:55.878Z,16.75
2018-03-15T23:46:23.346Z,15.98
2018-03-15T23:48:50.778Z,16.45
2018-03-15T23:51:18.223Z,16.30
2018-03-15T23:53:45.658Z,16.45
2018-03-15T23:56:13.090Z,16.23
2018-03-15T23:58:41.299Z,16.73
